Latest Weather Observations for Kiama

IDN60801

Issued at 4:32 pm EDT Sunday 7 February 2016 (issued every 30 minutes, with the page automatically refreshed every 10 minutes)

About weather observations | Map of weather stations | Latest weather observations for NSW | Other Formats
Station Details ID: 068242 Name: KIAMA (BOMBO HEADLAND) Lat: -34.65 Lon: 150.86 Height: 15.5 m
Data from the previous 72 hours. | See also: Recent months at Kiama
Date/Time
EDT
Temp
°C
App
Temp
°C
Dew
Point
Rel
Hum
%
Delta-T
°C
Wind Press
QNH
hPa
Press
MSL
hPa
Rain
since 9 am
mm
Dir
 
Spd
km/h
Gust
km/h
Spd
kts
Gust
kts
07/04:30pm 25.1 26.7 18.3 66 4.3 E 7 11 4 6 - - 0.0
07/04:00pm 24.8 25.8 17.8 65 4.4 ESE 9 13 5 7 - - 0.0
07/03:30pm 25.2 26.6 17.9 64 4.6 E 7 13 4 7 - - 0.0
07/03:00pm 24.9 26.2 18.4 67 4.1 SE 9 11 5 6 - - 0.0
07/02:30pm 24.5 25.3 18.2 68 4.0 SE 11 13 6 7 - - 0.0
07/02:00pm 24.1 24.9 18.1 69 3.8 SE 11 15 6 8 - - 0.0
07/01:30pm 23.9 24.3 18.1 70 3.6 SE 13 17 7 9 - - 0.0
07/01:00pm 23.9 24.3 18.1 70 3.6 SE 13 17 7 9 - - 0.0
07/12:30pm 23.8 23.6 17.5 68 3.9 SE 15 17 8 9 - - 0.0
07/12:00pm 23.5 22.9 17.5 69 3.7 SSE 17 20 9 11 - - 0.0
07/11:30am 23.2 22.4 17.2 69 3.7 SSE 17 19 9 10 - - 0.0
07/11:00am 23.3 22.8 17.7 71 3.5 SSE 17 19 9 10 - - 0.0
07/10:30am 23.3 23.1 16.6 66 4.1 S 13 19 7 10 - - 0.0
07/10:00am 22.9 22.5 16.2 66 4.1 S 13 17 7 9 - - 0.0
07/09:30am 22.6 21.8 17.1 71 3.4 SSW 17 20 9 11 - - 0.0
07/09:00am 22.0 21.1 16.9 73 3.1 SSW 17 20 9 11 - - 0.0
07/08:30am 21.5 20.9 16.7 74 2.9 SSW 15 19 8 10 - - 0.0
07/08:00am 21.2 20.7 16.8 76 2.7 SSW 15 17 8 9 - - 0.0
07/07:30am 20.6 20.8 16.8 79 2.3 SW 11 13 6 7 - - 0.0
07/07:00am 20.2 20.8 16.8 81 2.1 SW 9 13 5 7 - - 0.0
07/06:30am 20.1 20.7 16.7 81 2.1 SW 9 15 5 8 - - 0.0
07/06:00am 20.1 21.1 16.9 82 1.9 SW 7 11 4 6 - - 0.0
07/05:30am 20.1 21.1 16.9 82 1.9 SW 7 11 4 6 - - 0.0
07/05:00am 20.3 21.5 16.9 81 2.1 SW 6 9 3 5 - - 0.0
07/04:30am 20.4 20.3 17.0 81 2.1 SW 13 19 7 10 - - 0.0
07/04:00am 20.3 20.6 16.9 81 2.1 SW 11 15 6 8 - - 0.0
07/03:30am 20.6 19.8 17.0 80 2.2 SSW 17 20 9 11 - - 0.0
07/03:00am 20.6 19.5 17.2 81 2.1 SSW 19 22 10 12 - - 0.0
07/02:30am 19.9 20.6 17.1 84 1.7 SW 9 13 5 7 - - 0.0
07/02:00am 20.0 21.1 17.0 83 1.8 SW 7 11 4 6 - - 0.0
07/01:30am 20.8 22.2 17.4 81 2.1 SW 6 7 3 4 - - 0.0
07/01:00am 21.3 22.8 17.7 80 2.2 SW 6 9 3 5 - - 0.0
07/12:30am 21.4 22.2 17.4 78 2.5 SSW 9 13 5 7 - - 0.0
07/12:00am 21.6 21.5 17.0 75 2.8 SSW 13 17 7 9 - - 0.0
 
Date/Time
EDT
Temp
°C
App
Temp
°C
Dew
Point
Rel
Hum
%
Delta-T
°C
Wind Press
QNH
hPa
Press
MSL
hPa
Rain
since 9 am
mm
Dir
 
Spd
km/h
Gust
km/h
Spd
kts
Gust
kts
06/11:30pm 21.7 21.7 16.2 71 3.3 SSW 11 13 6 7 - - 0.0
06/11:00pm 22.3 21.9 17.2 73 3.1 SE 15 17 8 9 - - 0.0
06/10:30pm 22.4 22.0 17.1 72 3.3 SE 15 17 8 9 - - 0.0
06/10:00pm 22.1 21.7 16.1 69 3.6 SE 13 17 7 9 - - 0.0
06/09:30pm 22.3 21.5 16.1 68 3.7 SE 15 19 8 10 - - 0.0
06/09:00pm 22.3 21.9 16.3 69 3.6 ESE 13 17 7 9 - - 0.0
06/08:30pm 22.3 21.9 16.1 68 3.7 SE 13 15 7 8 - - 0.0
06/08:00pm 22.3 21.6 16.3 69 3.6 SE 15 19 8 10 - - 0.0
06/07:30pm 22.6 21.4 16.2 67 3.9 SE 17 20 9 11 - - 0.0
06/07:00pm 22.9 22.1 17.1 70 3.6 SE 17 22 9 12 - - 0.0
06/06:30pm 23.1 21.7 16.6 67 4.0 SE 19 22 10 12 - - 0.0
06/06:00pm 23.4 22.3 17.4 69 3.7 SE 19 22 10 12 - - 0.0
06/05:30pm 23.4 22.0 16.9 67 4.0 SE 20 24 11 13 - - 0.0
06/05:00pm 23.4 22.1 17.2 68 3.8 SE 20 24 11 13 - - 0.0
06/04:30pm 23.6 22.3 17.3 67 3.9 SE 20 24 11 13 - - 0.0
06/04:00pm 23.8 22.4 16.6 64 4.4 SE 19 22 10 12 - - 0.0
06/03:30pm 24.0 22.7 17.3 66 4.2 SE 20 24 11 13 - - 0.0
06/03:00pm 23.9 22.4 16.7 64 4.4 SE 20 24 11 13 - - 0.0
06/02:30pm 23.5 21.0 16.1 63 4.5 SSE 24 28 13 15 - - 0.0
06/02:00pm 23.6 21.7 16.6 65 4.3 SSE 22 28 12 15 - - 0.0
06/01:30pm 23.5 21.1 16.5 65 4.3 SSE 24 28 13 15 - - 0.0
06/01:00pm 23.6 21.6 16.4 64 4.4 SSE 22 28 12 15 - - 0.0
06/12:30pm 23.4 21.8 16.4 64 4.3 SSE 20 26 11 14 - - 0.0
06/12:00pm 23.1 21.2 16.6 67 4.0 SSE 22 28 12 15 - - 0.0
06/11:30am 22.9 20.5 16.4 67 4.0 SSE 24 30 13 16 - - 0.0
06/11:00am 22.6 20.6 17.3 72 3.3 S 24 32 13 17 - - 0.0
06/10:30am 22.6 19.6 16.9 70 3.5 S 28 35 15 19 - - 0.0
06/10:00am 22.3 20.0 16.6 70 3.5 S 24 35 13 19 - - 0.0
06/09:30am 21.9 20.2 16.2 70 3.4 S 20 28 11 15 - - 0.0
06/09:00am 21.6 19.8 15.9 70 3.4 SSW 20 28 11 15 - - 0.0
06/08:30am 21.6 19.8 16.1 71 3.3 S 20 26 11 14 - - 0.0
06/08:00am 21.2 18.8 15.3 69 3.5 SSW 22 32 12 17 - - 0.0
06/07:30am 20.9 19.1 15.9 73 3.0 SSW 20 24 11 13 - - 0.0
06/07:00am 21.3 18.7 15.8 71 3.3 S 24 33 13 18 - - 0.0
06/06:30am 21.3 18.9 16.3 73 3.0 S 24 37 13 20 - - 0.0
06/06:00am 21.4 18.2 15.3 68 3.6 S 26 33 14 18 - - 0.0
06/05:30am 21.5 17.3 15.8 70 3.4 SSE 32 39 17 21 - - 0.0
06/05:00am 21.8 18.2 14.2 62 4.4 S 26 33 14 18 - - 0.0
06/04:30am 21.5 17.6 14.4 64 4.2 S 28 35 15 19 - - 0.0
06/04:00am 21.5 18.6 16.2 72 3.2 S 26 35 14 19 - - 0.0
06/03:30am 21.3 17.0 15.4 69 3.5 SSE 32 39 17 21 - - 0.0
06/03:00am 21.6 17.1 15.0 66 3.9 SSE 32 39 17 21 - - 0.0
06/02:30am 21.8 17.4 15.2 66 3.9 SSE 32 39 17 21 - - 0.0
06/02:00am 21.8 17.9 14.4 63 4.3 SSE 28 35 15 19 - - 0.0
06/01:30am 21.6 19.4 14.5 64 4.2 SSE 19 24 10 13 - - 0.0
06/01:00am 21.6 17.6 15.2 67 3.8 SSE 30 35 16 19 - - 0.0
06/12:30am 21.4 19.3 15.3 68 3.6 S 20 26 11 14 - - 0.0
06/12:00am 21.7 18.0 15.1 66 3.9 SSE 28 35 15 19 - - 0.0
 
Date/Time
EDT
Temp
°C
App
Temp
°C
Dew
Point
Rel
Hum
%
Delta-T
°C
Wind Press
QNH
hPa
Press
MSL
hPa
Rain
since 9 am
mm
Dir
 
Spd
km/h
Gust
km/h
Spd
kts
Gust
kts
05/11:30pm 21.8 17.5 14.4 63 4.3 SSE 30 37 16 20 - - 0.0
05/11:00pm 21.7 17.1 15.1 66 3.9 SSE 33 39 18 21 - - 0.0
05/10:30pm 21.6 17.5 15.9 70 3.4 SSE 32 37 17 20 - - 0.0
05/10:00pm 21.6 17.9 15.9 70 3.4 SSE 30 35 16 19 - - 0.0
05/09:30pm 21.8 17.8 16.3 71 3.3 SSE 32 37 17 20 - - 0.0
05/09:00pm 21.8 17.6 15.6 68 3.7 SSE 32 43 17 23 - - 0.0
05/08:30pm 21.8 18.4 15.9 69 3.5 S 28 35 15 19 - - 0.0
05/08:00pm 21.7 17.9 15.8 69 3.5 SSE 30 35 16 19 - - 0.0
05/07:30pm 21.8 17.8 16.1 70 3.4 SSE 32 39 17 21 - - 0.0
05/07:00pm 21.8 17.5 15.9 69 3.5 SSE 33 39 18 21 - - 0.0
05/06:30pm 22.0 18.1 16.9 73 3.1 SSE 33 39 18 21 - - 0.0
05/06:00pm 22.0 17.9 16.5 71 3.3 SSE 33 41 18 22 - - 0.0
05/05:30pm 22.3 18.3 16.6 70 3.5 S 33 41 18 22 - - 0.0
05/05:00pm 22.2 17.6 16.2 69 3.6 SSE 35 43 19 23 - - 0.0
05/04:30pm 22.5 18.2 15.8 66 4.0 SSE 33 41 18 22 - - 0.0
05/04:00pm 22.6 18.4 16.2 67 3.9 SSE 33 41 18 22 - - 0.0
05/03:30pm 22.7 17.7 16.0 66 4.0 SSE 37 43 20 23 - - 0.0
05/03:00pm 22.5 18.2 15.8 66 4.0 S 33 43 18 23 - - 0.0
05/02:30pm 22.8 18.2 15.1 62 4.6 SSE 33 43 18 23 - - 0.0
05/02:00pm 22.7 17.7 15.0 61 4.6 S 35 46 19 25 - - 0.0
05/01:30pm 22.8 18.1 14.9 61 4.7 S 33 43 18 23 - - 0.0
05/01:00pm 22.5 17.2 14.1 59 4.9 SSE 35 43 19 23 - - 0.0
05/12:30pm 22.6 17.7 15.4 64 4.3 SSE 35 43 19 23 - - 0.0
05/12:00pm 22.7 16.7 13.2 55 5.5 SSE 37 46 20 25 - - 0.0
05/11:30am 22.6 17.7 15.2 63 4.4 SSE 35 44 19 24 - - 0.0
05/11:00am 22.2 16.8 15.1 64 4.2 SSE 37 44 20 24 - - 0.0
05/10:30am 22.2 16.2 14.3 61 4.6 S 39 52 21 28 - - 0.0
05/10:00am 21.9 15.2 14.5 63 4.3 SSE 43 54 23 29 - - 0.0
05/09:30am 21.9 16.4 14.8 64 4.2 SSE 37 46 20 25 - - 0.0
05/09:00am 21.8 15.1 13.4 59 4.8 SSE 41 52 22 28 - - 0.2
05/08:50am 21.4 16.5 13.6 61 4.5 S 32 48 17 26 - - 0.2
05/08:30am 20.8 16.1 14.2 66 3.8 S 32 44 17 24 - - 0.2
05/08:00am 21.3 14.8 14.0 63 4.2 S 41 54 22 29 - - 0.2
05/07:30am 21.4 14.4 13.8 62 4.4 SSE 43 50 23 27 - - 0.2
05/07:00am 20.9 16.1 14.1 65 3.9 S 32 44 17 24 - - 0.2
05/06:30am 19.4 16.4 14.9 75 2.6 SSW 24 39 13 21 - - 0.2
05/06:13am 19.9 16.9 14.7 72 3.0 S 24 46 13 25 - - 0.2
05/06:00am 19.5 17.1 15.4 77 2.4 SSW 22 46 12 25 - - 0.2
05/05:53am 19.9 15.1 14.5 71 3.1 S 33 46 18 25 - - 0.2
05/05:30am 21.0 14.2 14.9 68 3.6 SSE 44 54 24 29 - - 0.2
05/05:00am 20.9 15.1 13.8 64 4.1 S 37 50 20 27 - - 0.2
05/04:30am 20.7 16.1 15.0 70 3.4 S 33 50 18 27 - - 0.2
05/04:28am 20.4 16.5 15.4 73 3.0 S 30 50 16 27 - - 0.2
05/04:00am 19.7 16.2 15.6 77 2.4 SSW 28 35 15 19 - - 0.2
05/03:30am 19.3 16.5 15.4 78 2.3 SSW 24 32 13 17 - - 0.2
05/03:00am 20.0 16.7 15.0 73 2.9 SSW 26 39 14 21 - - 0.2
05/02:30am 19.9 16.0 15.5 76 2.6 SSW 30 54 16 29 - - 0.2
05/02:09am 20.5 17.3 15.3 72 3.1 SSW 26 52 14 28 - - 0.2
05/02:00am 20.0 17.4 15.0 73 2.9 SSW 22 30 12 16 - - 0.2
05/01:52am 20.5 15.4 14.8 70 3.3 S 35 52 19 28 - - 0.2
05/01:30am 21.4 14.8 13.8 62 4.4 S 41 52 22 28 - - 0.2
05/01:10am 21.5 16.1 15.1 67 3.8 S 37 56 20 30 - - 0.2
05/01:00am 21.2 16.2 14.1 64 4.1 S 33 48 18 26 - - 0.2
05/12:30am 20.1 16.0 15.9 77 2.5 SSW 32 41 17 22 - - 0.2
05/12:00am 20.9 15.4 15.7 72 3.1 SSW 39 52 21 28 - - 0.2
 
Date/Time
EDT
Temp
°C
App
Temp
°C
Dew
Point
Rel
Hum
%
Delta-T
°C
Wind Press
QNH
hPa
Press
MSL
hPa
Rain
since 9 am
mm
Dir
 
Spd
km/h
Gust
km/h
Spd
kts
Gust
kts
04/11:30pm 21.2 15.1 15.1 68 3.6 SSW 41 54 22 29 - - 0.2
04/11:00pm 20.6 15.1 14.7 69 3.5 SSW 37 57 20 31 - - 0.2
04/10:56pm 20.8 17.7 16.6 77 2.5 SSW 28 48 15 26 - - 0.2
04/10:30pm 21.5 15.5 16.9 75 2.8 S 44 56 24 30 - - 0.2
04/10:00pm 20.6 16.8 16.6 78 2.4 SSW 32 41 17 22 - - 0.2
04/09:30pm 20.9 15.9 16.1 74 2.9 SSW 37 48 20 26 - - 0.2
04/09:04pm 21.4 16.9 15.3 68 3.6 S 33 54 18 29 - - 0.2
04/09:00pm 21.3 16.6 14.9 67 3.8 S 33 43 18 23 - - 0.2
04/08:30pm 21.6 14.9 14.5 64 4.2 S 43 57 23 31 - - 0.2
04/08:00pm 21.3 14.6 14.5 65 4.0 S 43 57 23 31 - - 0.2
04/07:30pm 21.5 14.9 15.3 68 3.7 S 44 61 24 33 - - 0.2
04/07:01pm 21.8 15.8 15.4 67 3.8 S 41 59 22 32 - - 0.2
04/07:00pm 21.8 15.2 14.9 65 4.1 S 43 59 23 32 - - 0.2
04/06:49pm 22.0 15.4 15.4 66 3.9 S 44 65 24 35 - - 0.2
04/06:30pm 22.0 14.4 14.6 63 4.4 S 48 63 26 34 - - 0.2
04/06:00pm 21.9 15.2 16.0 69 3.6 S 46 63 25 34 - - 0.2
04/05:30pm 21.9 14.8 16.0 69 3.6 S 48 67 26 36 - - 0.2
04/05:01pm 22.4 14.9 14.0 59 4.9 S 46 67 25 36 - - 0.2
04/05:00pm 22.5 15.7 14.9 62 4.5 S 44 61 24 33 - - 0.2

Other Formats:

Comma delimited format used in spreadsheet applications
http://www.bom.gov.au/fwo/IDN60801/IDN60801.95749.axf

JavaScript Object Notation format (JSON) in row-major order
http://www.bom.gov.au/fwo/IDN60801/IDN60801.95749.json